sensor_id;sensor_type;location;lat;lon;timestamp;temperature;humidity
1411;DHT22;700;51.906;8.404;2023-04-24T00:03:50;13.30;99.90
1411;DHT22;700;51.906;8.404;2023-04-24T00:08:50;13.50;99.90
1411;DHT22;700;51.906;8.404;2023-04-24T00:13:53;13.40;99.90
1411;DHT22;700;51.906;8.404;2023-04-24T00:18:54;13.40;99.90
1411;DHT22;700;51.906;8.404;2023-04-24T00:23:55;13.50;99.90
1411;DHT22;700;51.906;8.404;2023-04-24T00:28:58;13.50;99.90
1411;DHT22;700;51.906;8.404;2023-04-24T00:33:58;13.70;99.90
1411;DHT22;700;51.906;8.404;2023-04-24T00:39:02;13.60;99.90
1411;DHT22;700;51.906;8.404;2023-04-24T00:44:02;13.30;99.90
1411;DHT22;700;51.906;8.404;2023-04-24T00:49:04;13.50;99.90
1411;DHT22;700;51.906;8.404;2023-04-24T00:54:05;13.40;99.90
1411;DHT22;700;51.906;8.404;2023-04-24T00:59:09;13.50;99.90
1411;DHT22;700;51.906;8.404;2023-04-24T01:04:11;13.50;99.90
1411;DHT22;700;51.906;8.404;2023-04-24T01:09:12;13.70;99.90
1411;DHT22;700;51.906;8.404;2023-04-24T01:14:14;13.50;99.90
1411;DHT22;700;51.906;8.404;2023-04-24T01:19:16;13.50;99.90
1411;DHT22;700;51.906;8.404;2023-04-24T01:24:21;13.40;99.90
1411;DHT22;700;51.906;8.404;2023-04-24T01:29:24;13.10;99.90
1411;DHT22;700;51.906;8.404;2023-04-24T01:34:27;12.90;99.90
1411;DHT22;700;51.906;8.404;2023-04-24T01:39:30;13.10;99.90
1411;DHT22;700;51.906;8.404;2023-04-24T01:44:32;12.80;99.90
1411;DHT22;700;51.906;8.404;2023-04-24T01:49:39;12.60;99.90
1411;DHT22;700;51.906;8.404;2023-04-24T01:54:40;12.50;99.90
1411;DHT22;700;51.906;8.404;2023-04-24T01:59:41;12.30;99.90
1411;DHT22;700;51.906;8.404;2023-04-24T02:04:44;12.50;99.90
1411;DHT22;700;51.906;8.404;2023-04-24T02:09:45;12.30;99.90
1411;DHT22;700;51.906;8.404;2023-04-24T02:14:45;12.20;99.90
1411;DHT22;700;51.906;8.404;2023-04-24T02:19:46;12.00;99.90
1411;DHT22;700;51.906;8.404;2023-04-24T02:24:51;12.20;99.90
1411;DHT22;700;51.906;8.404;2023-04-24T02:29:54;12.30;99.90
1411;DHT22;700;51.906;8.404;2023-04-24T02:34:55;12.40;99.90
1411;DHT22;700;51.906;8.404;2023-04-24T02:39:56;12.30;99.90
1411;DHT22;700;51.906;8.404;2023-04-24T02:44:56;12.40;99.90
1411;DHT22;700;51.906;8.404;2023-04-24T02:49:57;12.20;99.90
1411;DHT22;700;51.906;8.404;2023-04-24T02:54:57;12.30;99.90
1411;DHT22;700;51.906;8.404;2023-04-24T03:00:03;12.30;99.90
1411;DHT22;700;51.906;8.404;2023-04-24T03:05:04;12.30;99.90
1411;DHT22;700;51.906;8.404;2023-04-24T03:10:08;12.40;99.90
1411;DHT22;700;51.906;8.404;2023-04-24T03:15:09;12.40;99.90
1411;DHT22;700;51.906;8.404;2023-04-24T03:20:12;12.50;99.90
1411;DHT22;700;51.906;8.404;2023-04-24T03:25:12;12.80;99.90
1411;DHT22;700;51.906;8.404;2023-04-24T03:30:13;13.10;99.90
1411;DHT22;700;51.906;8.404;2023-04-24T03:35:14;12.80;99.90
1411;DHT22;700;51.906;8.404;2023-04-24T03:40:19;12.80;99.90
1411;DHT22;700;51.906;8.404;2023-04-24T03:45:24;12.70;99.90
1411;DHT22;700;51.906;8.404;2023-04-24T03:50:28;12.80;99.90
1411;DHT22;700;51.906;8.404;2023-04-24T03:55:29;12.90;99.90
1411;DHT22;700;51.906;8.404;2023-04-24T04:00:32;12.70;99.90
1411;DHT22;700;51.906;8.404;2023-04-24T04:05:33;12.80;99.90
1411;DHT22;700;51.906;8.404;2023-04-24T04:10:36;12.40;99.90
1411;DHT22;700;51.906;8.404;2023-04-24T04:15:37;12.60;99.90
1411;DHT22;700;51.906;8.404;2023-04-24T04:20:37;12.60;99.90
1411;DHT22;700;51.906;8.404;2023-04-24T04:25:38;12.60;99.90
1411;DHT22;700;51.906;8.404;2023-04-24T04:30:38;12.70;99.90
1411;DHT22;700;51.906;8.404;2023-04-24T04:35:40;13.00;99.90
1411;DHT22;700;51.906;8.404;2023-04-24T04:40:41;13.20;99.90
1411;DHT22;700;51.906;8.404;2023-04-24T04:45:44;13.30;99.90
1411;DHT22;700;51.906;8.404;2023-04-24T04:50:45;13.40;99.90
1411;DHT22;700;51.906;8.404;2023-04-24T04:55:46;12.90;99.90
1411;DHT22;700;51.906;8.404;2023-04-24T05:00:47;12.60;99.90
1411;DHT22;700;51.906;8.404;2023-04-24T05:05:53;12.30;99.90
1411;DHT22;700;51.906;8.404;2023-04-24T05:10:54;12.20;99.90
1411;DHT22;700;51.906;8.404;2023-04-24T05:15:58;12.20;99.90
1411;DHT22;700;51.906;8.404;2023-04-24T05:21:01;12.20;99.90
1411;DHT22;700;51.906;8.404;2023-04-24T05:26:05;12.10;99.90
1411;DHT22;700;51.906;8.404;2023-04-24T05:31:06;12.10;99.90
1411;DHT22;700;51.906;8.404;2023-04-24T05:36:06;12.00;99.90
1411;DHT22;700;51.906;8.404;2023-04-24T05:41:07;12.00;99.90
1411;DHT22;700;51.906;8.404;2023-04-24T05:46:11;12.20;99.90
1411;DHT22;700;51.906;8.404;2023-04-24T05:51:12;12.20;99.90
1411;DHT22;700;51.906;8.404;2023-04-24T05:56:13;12.30;99.90
1411;DHT22;700;51.906;8.404;2023-04-24T06:01:13;12.40;99.90
1411;DHT22;700;51.906;8.404;2023-04-24T06:06:19;12.20;99.90
1411;DHT22;700;51.906;8.404;2023-04-24T06:11:20;12.20;99.90
1411;DHT22;700;51.906;8.404;2023-04-24T06:16:20;12.00;99.90
1411;DHT22;700;51.906;8.404;2023-04-24T06:21:21;12.30;99.90
1411;DHT22;700;51.906;8.404;2023-04-24T06:26:24;12.40;99.90
1411;DHT22;700;51.906;8.404;2023-04-24T06:31:26;12.50;99.90
1411;DHT22;700;51.906;8.404;2023-04-24T06:36:27;12.30;99.90
1411;DHT22;700;51.906;8.404;2023-04-24T06:41:28;12.10;99.90
1411;DHT22;700;51.906;8.404;2023-04-24T06:46:29;12.30;99.90
1411;DHT22;700;51.906;8.404;2023-04-24T06:51:30;12.30;99.90
1411;DHT22;700;51.906;8.404;2023-04-24T06:56:33;12.20;99.90
1411;DHT22;700;51.906;8.404;2023-04-24T07:01:36;12.30;99.90
1411;DHT22;700;51.906;8.404;2023-04-24T07:06:36;12.00;99.90
1411;DHT22;700;51.906;8.404;2023-04-24T07:11:38;12.30;99.90
1411;DHT22;700;51.906;8.404;2023-04-24T07:16:44;12.40;99.90
1411;DHT22;700;51.906;8.404;2023-04-24T07:21:45;12.30;99.90
1411;DHT22;700;51.906;8.404;2023-04-24T07:26:48;12.20;99.90
1411;DHT22;700;51.906;8.404;2023-04-24T07:31:49;12.20;99.90
1411;DHT22;700;51.906;8.404;2023-04-24T07:36:50;12.00;99.90
1411;DHT22;700;51.906;8.404;2023-04-24T07:41:50;12.10;99.90
1411;DHT22;700;51.906;8.404;2023-04-24T07:46:51;12.50;99.90
1411;DHT22;700;51.906;8.404;2023-04-24T07:51:52;12.70;99.90
1411;DHT22;700;51.906;8.404;2023-04-24T07:56:52;12.70;99.90
1411;DHT22;700;51.906;8.404;2023-04-24T08:01:55;12.80;99.90
1411;DHT22;700;51.906;8.404;2023-04-24T08:06:56;12.40;99.90
1411;DHT22;700;51.906;8.404;2023-04-24T08:11:57;12.50;99.90
1411;DHT22;700;51.906;8.404;2023-04-24T08:17:02;12.20;99.90
1411;DHT22;700;51.906;8.404;2023-04-24T08:22:05;12.20;99.90
1411;DHT22;700;51.906;8.404;2023-04-24T08:27:06;12.50;99.90
1411;DHT22;700;51.906;8.404;2023-04-24T08:32:07;12.50;99.90
1411;DHT22;700;51.906;8.404;2023-04-24T08:37:07;12.50;99.90
1411;DHT22;700;51.906;8.404;2023-04-24T08:42:08;12.10;99.90
1411;DHT22;700;51.906;8.404;2023-04-24T08:47:12;12.00;99.90
1411;DHT22;700;51.906;8.404;2023-04-24T08:52:13;12.40;99.90
1411;DHT22;700;51.906;8.404;2023-04-24T08:57:17;12.60;99.90
1411;DHT22;700;51.906;8.404;2023-04-24T09:02:21;12.50;99.90
1411;DHT22;700;51.906;8.404;2023-04-24T09:07:24;12.30;99.90
1411;DHT22;700;51.906;8.404;2023-04-24T09:12:26;12.20;99.90
1411;DHT22;700;51.906;8.404;2023-04-24T09:17:30;11.90;99.90
1411;DHT22;700;51.906;8.404;2023-04-24T09:22:31;12.10;99.90
1411;DHT22;700;51.906;8.404;2023-04-24T09:27:34;13.00;99.90
1411;DHT22;700;51.906;8.404;2023-04-24T09:32:35;13.10;99.90
1411;DHT22;700;51.906;8.404;2023-04-24T09:37:46;12.70;99.90
1411;DHT22;700;51.906;8.404;2023-04-24T09:42:52;12.40;99.90
1411;DHT22;700;51.906;8.404;2023-04-24T09:47:53;12.00;99.90
1411;DHT22;700;51.906;8.404;2023-04-24T09:52:58;12.00;99.90
1411;DHT22;700;51.906;8.404;2023-04-24T09:58:02;12.30;99.90
1411;DHT22;700;51.906;8.404;2023-04-24T10:03:05;11.70;99.90
1411;DHT22;700;51.906;8.404;2023-04-24T10:08:08;12.10;99.90
1411;DHT22;700;51.906;8.404;2023-04-24T10:13:10;12.20;99.90
1411;DHT22;700;51.906;8.404;2023-04-24T10:18:11;12.00;99.90
1411;DHT22;700;51.906;8.404;2023-04-24T10:23:12;12.00;99.90
1411;DHT22;700;51.906;8.404;2023-04-24T10:28:13;12.40;99.90
1411;DHT22;700;51.906;8.404;2023-04-24T10:33:14;12.10;99.90
1411;DHT22;700;51.906;8.404;2023-04-24T10:38:18;12.00;99.90
1411;DHT22;700;51.906;8.404;2023-04-24T10:43:24;12.00;99.90
1411;DHT22;700;51.906;8.404;2023-04-24T10:48:27;11.90;99.90
1411;DHT22;700;51.906;8.404;2023-04-24T10:53:29;11.50;99.90
1411;DHT22;700;51.906;8.404;2023-04-24T11:03:53;11.20;99.90
1411;DHT22;700;51.906;8.404;2023-04-24T11:09:02;11.40;99.90
1411;DHT22;700;51.906;8.404;2023-04-24T11:14:09;11.30;99.90
1411;DHT22;700;51.906;8.404;2023-04-24T11:24:28;11.70;99.90
1411;DHT22;700;51.906;8.404;2023-04-24T11:29:42;11.70;99.90
1411;DHT22;700;51.906;8.404;2023-04-24T11:34:49;11.70;99.90
1411;DHT22;700;51.906;8.404;2023-04-24T11:39:52;12.20;99.90
1411;DHT22;700;51.906;8.404;2023-04-24T11:44:54;12.60;99.90
1411;DHT22;700;51.906;8.404;2023-04-24T11:50:00;12.80;99.90
1411;DHT22;700;51.906;8.404;2023-04-24T11:55:01;12.80;99.90
1411;DHT22;700;51.906;8.404;2023-04-24T12:00:03;12.60;99.90
1411;DHT22;700;51.906;8.404;2023-04-24T12:05:06;12.50;99.90
1411;DHT22;700;51.906;8.404;2023-04-24T12:10:07;12.70;99.90
1411;DHT22;700;51.906;8.404;2023-04-24T12:15:08;12.70;99.90
1411;DHT22;700;51.906;8.404;2023-04-24T12:20:10;12.70;99.90
1411;DHT22;700;51.906;8.404;2023-04-24T12:25:11;12.80;99.90
1411;DHT22;700;51.906;8.404;2023-04-24T12:30:14;13.10;99.90
1411;DHT22;700;51.906;8.404;2023-04-24T12:35:25;13.20;99.90
1411;DHT22;700;51.906;8.404;2023-04-24T12:40:26;13.40;99.90
1411;DHT22;700;51.906;8.404;2023-04-24T12:45:27;13.40;99.90
1411;DHT22;700;51.906;8.404;2023-04-24T12:50:28;13.20;99.90
1411;DHT22;700;51.906;8.404;2023-04-24T12:55:31;13.00;99.90
1411;DHT22;700;51.906;8.404;2023-04-24T13:00:32;12.90;99.90
1411;DHT22;700;51.906;8.404;2023-04-24T13:05:33;12.30;99.90
1411;DHT22;700;51.906;8.404;2023-04-24T13:10:36;12.20;99.90
1411;DHT22;700;51.906;8.404;2023-04-24T13:15:37;12.40;99.90
1411;DHT22;700;51.906;8.404;2023-04-24T13:20:37;12.50;99.90
1411;DHT22;700;51.906;8.404;2023-04-24T13:25:38;12.80;99.90
1411;DHT22;700;51.906;8.404;2023-04-24T13:30:39;13.10;99.90
1411;DHT22;700;51.906;8.404;2023-04-24T13:35:40;13.00;99.90
1411;DHT22;700;51.906;8.404;2023-04-24T13:40:40;13.10;99.90
1411;DHT22;700;51.906;8.404;2023-04-24T13:45:41;13.00;99.90
1411;DHT22;700;51.906;8.404;2023-04-24T13:50:42;13.00;99.90
1411;DHT22;700;51.906;8.404;2023-04-24T13:55:43;13.00;99.90
1411;DHT22;700;51.906;8.404;2023-04-24T14:00:49;12.90;99.90
1411;DHT22;700;51.906;8.404;2023-04-24T14:05:49;13.00;99.90
1411;DHT22;700;51.906;8.404;2023-04-24T14:10:50;12.80;99.90
1411;DHT22;700;51.906;8.404;2023-04-24T14:15:53;12.80;99.90
1411;DHT22;700;51.906;8.404;2023-04-24T14:20:54;13.00;99.90
1411;DHT22;700;51.906;8.404;2023-04-24T14:25:55;12.80;99.90
1411;DHT22;700;51.906;8.404;2023-04-24T14:30:56;12.80;99.90
1411;DHT22;700;51.906;8.404;2023-04-24T14:35:57;12.60;99.90
1411;DHT22;700;51.906;8.404;2023-04-24T14:40:57;12.60;99.90
1411;DHT22;700;51.906;8.404;2023-04-24T14:45:58;12.80;99.90
1411;DHT22;700;51.906;8.404;2023-04-24T14:50:59;12.70;99.90
1411;DHT22;700;51.906;8.404;2023-04-24T14:56:02;12.50;99.90
1411;DHT22;700;51.906;8.404;2023-04-24T15:01:03;12.50;99.90
1411;DHT22;700;51.906;8.404;2023-04-24T15:06:04;12.50;99.90
1411;DHT22;700;51.906;8.404;2023-04-24T15:11:05;12.70;99.90
1411;DHT22;700;51.906;8.404;2023-04-24T15:16:06;12.80;99.90
1411;DHT22;700;51.906;8.404;2023-04-24T15:21:06;12.80;99.90
1411;DHT22;700;51.906;8.404;2023-04-24T15:26:07;13.40;99.90
1411;DHT22;700;51.906;8.404;2023-04-24T15:31:08;13.70;99.90
1411;DHT22;700;51.906;8.404;2023-04-24T15:36:09;13.40;99.90
1411;DHT22;700;51.906;8.404;2023-04-24T15:41:12;13.60;99.90
1411;DHT22;700;51.906;8.404;2023-04-24T15:46:13;13.70;99.90
1411;DHT22;700;51.906;8.404;2023-04-24T15:51:13;13.70;99.90
1411;DHT22;700;51.906;8.404;2023-04-24T15:56:16;13.30;99.90
1411;DHT22;700;51.906;8.404;2023-04-24T16:01:20;12.90;99.90
1411;DHT22;700;51.906;8.404;2023-04-24T16:06:21;12.90;99.90
1411;DHT22;700;51.906;8.404;2023-04-24T16:11:24;12.90;99.90
1411;DHT22;700;51.906;8.404;2023-04-24T16:16:26;13.00;99.90
1411;DHT22;700;51.906;8.404;2023-04-24T16:21:30;13.20;99.90
1411;DHT22;700;51.906;8.404;2023-04-24T16:26:31;13.30;99.90
1411;DHT22;700;51.906;8.404;2023-04-24T16:31:32;13.00;99.90
1411;DHT22;700;51.906;8.404;2023-04-24T16:36:34;12.90;99.90
1411;DHT22;700;51.906;8.404;2023-04-24T16:41:37;13.20;99.90
1411;DHT22;700;51.906;8.404;2023-04-24T16:46:38;13.10;99.90
1411;DHT22;700;51.906;8.404;2023-04-24T16:51:39;13.00;99.90
1411;DHT22;700;51.906;8.404;2023-04-24T16:56:39;12.90;99.90
1411;DHT22;700;51.906;8.404;2023-04-24T17:01:40;12.80;99.90
1411;DHT22;700;51.906;8.404;2023-04-24T17:06:41;13.00;99.90
1411;DHT22;700;51.906;8.404;2023-04-24T17:11:42;13.20;99.90
1411;DHT22;700;51.906;8.404;2023-04-24T17:16:43;13.20;99.90
1411;DHT22;700;51.906;8.404;2023-04-24T17:21:47;13.20;99.90
1411;DHT22;700;51.906;8.404;2023-04-24T17:26:53;13.10;99.90
1411;DHT22;700;51.906;8.404;2023-04-24T17:31:56;13.10;99.90
1411;DHT22;700;51.906;8.404;2023-04-24T17:36:59;13.00;99.90
1411;DHT22;700;51.906;8.404;2023-04-24T17:41:59;13.20;99.90
1411;DHT22;700;51.906;8.404;2023-04-24T17:47:02;13.30;99.90
1411;DHT22;700;51.906;8.404;2023-04-24T17:52:05;13.40;99.90
1411;DHT22;700;51.906;8.404;2023-04-24T17:57:06;13.40;99.90
1411;DHT22;700;51.906;8.404;2023-04-24T18:02:06;13.40;99.90
1411;DHT22;700;51.906;8.404;2023-04-24T18:07:09;13.30;99.90
1411;DHT22;700;51.906;8.404;2023-04-24T18:12:10;13.10;99.90
1411;DHT22;700;51.906;8.404;2023-04-24T18:17:13;12.60;99.90
1411;DHT22;700;51.906;8.404;2023-04-24T18:22:15;12.50;99.90
1411;DHT22;700;51.906;8.404;2023-04-24T18:27:15;12.20;99.90
1411;DHT22;700;51.906;8.404;2023-04-24T18:32:16;12.00;99.90
1411;DHT22;700;51.906;8.404;2023-04-24T18:37:17;11.90;99.90
1411;DHT22;700;51.906;8.404;2023-04-24T18:42:17;12.00;99.90
1411;DHT22;700;51.906;8.404;2023-04-24T18:47:18;11.60;99.90
1411;DHT22;700;51.906;8.404;2023-04-24T18:52:19;11.50;99.90
1411;DHT22;700;51.906;8.404;2023-04-24T18:57:22;11.30;99.90
1411;DHT22;700;51.906;8.404;2023-04-24T19:02:22;11.30;99.90
1411;DHT22;700;51.906;8.404;2023-04-24T19:07:23;11.20;99.90
1411;DHT22;700;51.906;8.404;2023-04-24T19:12:26;11.00;99.90
1411;DHT22;700;51.906;8.404;2023-04-24T19:17:27;11.00;99.90
1411;DHT22;700;51.906;8.404;2023-04-24T19:22:31;11.20;99.90
1411;DHT22;700;51.906;8.404;2023-04-24T19:27:34;11.30;99.90
1411;DHT22;700;51.906;8.404;2023-04-24T19:32:35;11.40;99.90
1411;DHT22;700;51.906;8.404;2023-04-24T19:37:35;11.20;99.90
1411;DHT22;700;51.906;8.404;2023-04-24T19:42:36;11.10;99.90
1411;DHT22;700;51.906;8.404;2023-04-24T19:47:37;10.80;99.90
1411;DHT22;700;51.906;8.404;2023-04-24T19:52:41;10.80;99.90
1411;DHT22;700;51.906;8.404;2023-04-24T19:57:46;10.80;99.90
1411;DHT22;700;51.906;8.404;2023-04-24T20:02:46;10.70;99.90
1411;DHT22;700;51.906;8.404;2023-04-24T20:07:50;10.90;99.90
1411;DHT22;700;51.906;8.404;2023-04-24T20:12:50;10.70;99.90
1411;DHT22;700;51.906;8.404;2023-04-24T20:17:54;10.80;99.90
1411;DHT22;700;51.906;8.404;2023-04-24T20:22:59;10.60;99.90
1411;DHT22;700;51.906;8.404;2023-04-24T20:27:59;10.50;99.90
1411;DHT22;700;51.906;8.404;2023-04-24T20:33:02;10.50;99.90
1411;DHT22;700;51.906;8.404;2023-04-24T20:38:07;10.30;99.90
1411;DHT22;700;51.906;8.404;2023-04-24T20:43:13;10.40;99.90
1411;DHT22;700;51.906;8.404;2023-04-24T20:48:13;10.00;99.90
1411;DHT22;700;51.906;8.404;2023-04-24T20:53:14;10.20;99.90
1411;DHT22;700;51.906;8.404;2023-04-24T20:58:15;10.10;99.90
1411;DHT22;700;51.906;8.404;2023-04-24T21:03:18;10.20;99.90
1411;DHT22;700;51.906;8.404;2023-04-24T21:08:18;10.10;99.90
1411;DHT22;700;51.906;8.404;2023-04-24T21:13:19;10.00;99.90
1411;DHT22;700;51.906;8.404;2023-04-24T21:18:22;9.80;99.90
1411;DHT22;700;51.906;8.404;2023-04-24T21:23:22;9.70;99.90
1411;DHT22;700;51.906;8.404;2023-04-24T21:28:25;9.80;99.90
1411;DHT22;700;51.906;8.404;2023-04-24T21:33:27;9.60;99.90
1411;DHT22;700;51.906;8.404;2023-04-24T21:38:28;9.70;99.90
1411;DHT22;700;51.906;8.404;2023-04-24T21:43:28;9.70;99.90
1411;DHT22;700;51.906;8.404;2023-04-24T21:48:31;9.60;99.90
1411;DHT22;700;51.906;8.404;2023-04-24T21:53:34;9.60;99.90
1411;DHT22;700;51.906;8.404;2023-04-24T21:58:35;9.50;99.90
1411;DHT22;700;51.906;8.404;2023-04-24T22:03:38;9.60;99.90
1411;DHT22;700;51.906;8.404;2023-04-24T22:08:39;9.80;99.90
1411;DHT22;700;51.906;8.404;2023-04-24T22:13:41;9.80;99.90
1411;DHT22;700;51.906;8.404;2023-04-24T22:18:41;9.90;99.90
1411;DHT22;700;51.906;8.404;2023-04-24T22:23:42;9.70;99.90
1411;DHT22;700;51.906;8.404;2023-04-24T22:28:42;9.70;99.90
1411;DHT22;700;51.906;8.404;2023-04-24T22:33:44;9.40;99.90
1411;DHT22;700;51.906;8.404;2023-04-24T22:38:48;9.20;99.90
1411;DHT22;700;51.906;8.404;2023-04-24T22:43:51;9.40;99.90
1411;DHT22;700;51.906;8.404;2023-04-24T22:48:51;9.60;99.90
1411;DHT22;700;51.906;8.404;2023-04-24T22:53:53;9.50;99.90
1411;DHT22;700;51.906;8.404;2023-04-24T22:58:54;9.60;99.90
1411;DHT22;700;51.906;8.404;2023-04-24T23:03:55;9.90;99.90
1411;DHT22;700;51.906;8.404;2023-04-24T23:08:58;9.90;99.90
1411;DHT22;700;51.906;8.404;2023-04-24T23:14:02;9.80;99.90
1411;DHT22;700;51.906;8.404;2023-04-24T23:19:03;9.80;99.90
1411;DHT22;700;51.906;8.404;2023-04-24T23:24:09;9.90;99.90
1411;DHT22;700;51.906;8.404;2023-04-24T23:29:14;9.90;99.90
1411;DHT22;700;51.906;8.404;2023-04-24T23:34:14;9.80;99.90
1411;DHT22;700;51.906;8.404;2023-04-24T23:39:21;10.00;99.90
1411;DHT22;700;51.906;8.404;2023-04-24T23:44:24;9.80;99.90
1411;DHT22;700;51.906;8.404;2023-04-24T23:49:27;9.80;99.90
1411;DHT22;700;51.906;8.404;2023-04-24T23:54:30;9.80;99.90
1411;DHT22;700;51.906;8.404;2023-04-24T23:59:31;9.90;99.90
